Time;durP1;ratioP1;P1;durP2;ratioP2;P2;SDS_P1;SDS_P2;PMS_P1;PMS_P2;Temp;Humidity;BMP_temperature;BMP_pressure;BME280_temperature;BME280_humidity;BME280_pressure;Samples;Min_cycle;Max_cycle;Signal;HPM_P1;HPM_P2
2022/05/12 20:25:10;;;;;;;5.70;2.63;;;23.20;39.20;;;;;;5027441;28;2023195;-71
2022/05/12 20:27:36;;;;;;;6.78;2.72;;;23.50;38.70;;;;;;5092267;28;20032;-69
2022/05/12 20:30:04;;;;;;;4.53;2.90;;;23.40;38.80;;;;;;5091479;28;20034;-71
2022/05/12 20:32:33;;;;;;;6.00;3.17;;;23.40;39.00;;;;;;5074524;28;20047;-69
2022/05/12 20:35:00;;;;;;;9.32;3.20;;;23.40;39.00;;;;;;5074638;28;20157;-69
2022/05/12 20:37:26;;;;;;;6.85;3.00;;;23.30;39.10;;;;;;5095634;28;20024;-69
2022/05/12 20:39:52;;;;;;;5.88;2.67;;;23.30;39.20;;;;;;5095762;28;20036;-69
2022/05/12 20:42:19;;;;;;;7.30;3.20;;;23.30;39.30;;;;;;5097364;28;20028;-70
2022/05/12 20:44:44;;;;;;;6.18;2.90;;;23.30;39.40;;;;;;5097280;28;20347;-69
2022/05/12 20:47:12;;;;;;;5.00;2.60;;;23.30;39.50;;;;;;5079311;28;20031;-69
2022/05/12 20:49:37;;;;;;;5.93;2.80;;;23.30;39.60;;;;;;5097095;28;20024;-70
2022/05/12 20:52:03;;;;;;;7.85;2.97;;;23.30;39.70;;;;;;5096818;28;20077;-70
2022/05/12 20:54:29;;;;;;;4.93;2.90;;;23.30;39.80;;;;;;5097138;28;20089;-69
2022/05/12 20:56:55;;;;;;;7.05;2.78;;;23.30;39.90;;;;;;5097063;28;20106;-69
2022/05/12 20:59:20;;;;;;;7.68;2.97;;;23.20;39.90;;;;;;5096966;28;20432;-69
2022/05/12 21:01:46;;;;;;;5.00;2.40;;;23.20;40.00;;;;;;5097106;28;20442;-69
2022/05/12 21:04:12;;;;;;;5.80;2.67;;;23.10;40.60;;;;;;5096853;28;20442;-70
2022/05/12 21:06:37;;;;;;;5.75;2.83;;;23.20;40.20;;;;;;5096598;28;20032;-67
2022/05/12 21:09:07;;;;;;;5.82;3.20;;;23.20;40.30;;;;;;5096885;28;20082;-68
2022/05/12 21:11:33;;;;;;;6.18;2.90;;;23.10;40.40;;;;;;5096547;28;20036;-70
2022/05/12 21:13:58;;;;;;;5.70;2.60;;;23.10;40.50;;;;;;5096791;28;20028;-70
2022/05/12 21:16:25;;;;;;;7.35;2.78;;;23.10;40.50;;;;;;5096678;28;20032;-70
2022/05/12 21:18:50;;;;;;;4.90;3.00;;;23.10;40.70;;;;;;5096504;28;20031;-70
2022/05/12 21:21:16;;;;;;;3.80;2.50;;;23.10;40.80;;;;;;5096348;28;20025;-69
2022/05/12 21:23:45;;;;;;;4.40;2.90;;;23.10;40.90;;;;;;5096828;28;20119;-69
2022/05/12 21:26:11;;;;;;;6.22;2.92;;;23.10;41.00;;;;;;5096297;28;20074;-69
2022/05/12 21:28:38;;;;;;;5.70;2.63;;;23.00;41.10;;;;;;5078613;28;20028;-68
2022/05/12 21:31:04;;;;;;;5.28;3.33;;;23.00;41.10;;;;;;5096250;28;20099;-69
2022/05/12 21:33:30;;;;;;;6.00;2.72;;;23.00;41.20;;;;;;5078270;28;20024;-69
2022/05/12 21:35:56;;;;;;;5.68;2.63;;;23.00;41.30;;;;;;5096199;28;20481;-69
2022/05/12 21:38:22;;;;;;;5.65;2.83;;;23.00;41.40;;;;;;5096141;28;20055;-70
2022/05/12 21:40:49;;;;;;;6.20;2.80;;;23.00;41.50;;;;;;5096213;28;20070;-70
2022/05/12 21:43:19;;;;;;;3.25;2.80;;;23.00;41.60;;;;;;5096098;28;20099;-70
2022/05/12 21:45:48;;;;;;;2.90;2.35;;;22.90;41.70;;;;;;5095916;28;20527;-70
2022/05/12 21:48:33;;;;;;;4.28;2.65;;;22.90;41.70;;;;;;5076495;28;20028;-70
2022/05/12 21:51:05;;;;;;;4.78;2.60;;;22.90;42.20;;;;;;5096027;28;20024;-69
2022/05/12 21:53:40;;;;;;;4.47;2.65;;;22.90;41.90;;;;;;5095879;28;20024;-69
2022/05/12 21:56:12;;;;;;;4.60;2.90;;;22.80;42.10;;;;;;5096185;28;20035;-71
2022/05/12 22:01:27;;;;;;;3.35;2.80;;;22.80;42.20;;;;;;5096180;28;20038;-68
2022/05/12 22:03:54;;;;;;;4.13;2.65;;;22.80;42.30;;;;;;5095702;28;20035;-68
2022/05/12 22:06:22;;;;;;;4.82;2.75;;;22.80;42.50;;;;;;5095757;28;20059;-68
2022/05/12 22:08:49;;;;;;;3.13;2.45;;;22.70;42.50;;;;;;5095508;28;20533;-68
2022/05/12 22:11:15;;;;;;;6.22;2.72;;;22.70;42.60;;;;;;5095545;28;20039;-69
2022/05/12 22:13:41;;;;;;;3.05;2.60;;;22.70;42.60;;;;;;5096065;28;20115;-69
2022/05/12 22:16:08;;;;;;;2.60;2.40;;;22.70;42.80;;;;;;5077446;28;20493;-68
2022/05/12 22:18:34;;;;;;;5.18;2.60;;;22.60;42.70;;;;;;5095199;28;20039;-68
2022/05/12 22:21:01;;;;;;;5.30;2.70;;;22.60;42.90;;;;;;5095512;28;20024;-68
2022/05/12 22:23:27;;;;;;;3.15;2.60;;;22.70;43.00;;;;;;5095850;28;20032;-68
2022/05/12 22:25:54;;;;;;;4.05;2.50;;;22.60;43.10;;;;;;5095302;28;20051;-69
2022/05/12 22:28:19;;;;;;;4.00;2.50;;;22.60;43.10;;;;;;5095589;28;20386;-68
2022/05/12 22:30:45;;;;;;;3.53;2.60;;;22.60;43.30;;;;;;5095403;28;20024;-68
2022/05/12 22:33:11;;;;;;;3.03;2.63;;;22.60;43.30;;;;;;5095282;28;20024;-69
2022/05/12 22:35:37;;;;;;;3.65;2.60;;;22.60;43.40;;;;;;5095360;28;20533;-70
2022/05/12 22:38:05;;;;;;;4.40;2.92;;;22.50;43.40;;;;;;5094895;28;20103;-68
2022/05/12 22:40:33;;;;;;;6.20;2.80;;;22.50;43.50;;;;;;5076786;28;20028;-69
2022/05/12 22:42:59;;;;;;;3.83;2.70;;;22.50;43.60;;;;;;5077016;28;20485;-68
2022/05/12 22:45:26;;;;;;;3.78;2.50;;;22.50;43.60;;;;;;5095061;28;20498;-69
2022/05/12 22:47:52;;;;;;;5.28;2.70;;;22.50;43.60;;;;;;5094741;28;20034;-69
2022/05/12 22:50:18;;;;;;;3.15;2.45;;;22.50;43.80;;;;;;5094657;28;20028;-69
2022/05/12 22:52:44;;;;;;;3.97;2.75;;;22.50;43.80;;;;;;5094643;28;20024;-70
2022/05/12 22:55:12;;;;;;;4.53;2.70;;;22.50;43.90;;;;;;5094714;28;20028;-69
2022/05/12 22:57:38;;;;;;;3.45;2.67;;;22.50;43.90;;;;;;5094776;28;20023;-68
2022/05/12 23:00:05;;;;;;;3.75;2.72;;;22.50;44.00;;;;;;5094375;28;20168;-68
2022/05/12 23:02:31;;;;;;;2.92;2.60;;;22.50;44.10;;;;;;5094642;28;20085;-69
2022/05/12 23:04:57;;;;;;;3.00;2.65;;;22.40;44.10;;;;;;5094369;28;20024;-69
2022/05/12 23:07:23;;;;;;;4.88;2.92;;;22.40;44.20;;;;;;5094422;28;20028;-68
2022/05/12 23:09:49;;;;;;;4.03;2.70;;;22.40;44.30;;;;;;5094245;28;21056;-68
2022/05/12 23:12:15;;;;;;;3.67;2.63;;;22.40;44.30;;;;;;5094425;28;20028;-68
2022/05/12 23:14:41;;;;;;;2.70;2.50;;;22.40;44.40;;;;;;5094536;28;20477;-69
2022/05/12 23:17:07;;;;;;;5.15;2.80;;;22.40;44.50;;;;;;5094543;28;20020;-68
2022/05/12 23:22:17;;;;;;;5.40;2.63;;;22.30;44.60;;;;;;5094659;28;20105;-68
2022/05/12 23:24:43;;;;;;;3.15;2.85;;;22.30;44.60;;;;;;5094093;28;20521;-69
2022/05/12 23:27:09;;;;;;;3.42;2.80;;;22.30;44.60;;;;;;5094269;28;20028;-69
2022/05/12 23:29:34;;;;;;;4.38;3.00;;;22.30;44.80;;;;;;5094342;28;20462;-68
2022/05/12 23:32:00;;;;;;;3.30;3.00;;;22.30;44.80;;;;;;5094311;28;20374;-69
2022/05/12 23:34:27;;;;;;;3.05;2.63;;;22.30;44.90;;;;;;5094090;28;20052;-69
2022/05/12 23:36:53;;;;;;;4.03;3.00;;;22.30;45.00;;;;;;5094543;28;20032;-68
2022/05/12 23:39:19;;;;;;;3.22;2.92;;;22.30;45.00;;;;;;5094061;28;20123;-68
2022/05/12 23:41:44;;;;;;;4.15;3.20;;;22.30;45.10;;;;;;5093983;28;20107;-69
2022/05/12 23:44:10;;;;;;;4.18;3.15;;;22.20;45.10;;;;;;5093827;28;20035;-68
2022/05/12 23:46:38;;;;;;;3.45;3.10;;;22.20;45.20;;;;;;5075955;28;20024;-68
2022/05/12 23:49:04;;;;;;;4.88;3.03;;;22.20;45.30;;;;;;5093683;28;20028;-68
2022/05/12 23:51:30;;;;;;;3.50;3.20;;;22.20;45.30;;;;;;5094152;28;20091;-69
2022/05/12 23:53:56;;;;;;;4.00;3.40;;;22.20;45.40;;;;;;5093860;28;20406;-68
2022/05/12 23:56:22;;;;;;;6.60;3.30;;;22.20;45.50;;;;;;5093781;28;20027;-69
2022/05/12 23:58:48;;;;;;;4.18;3.30;;;22.20;45.60;;;;;;5093598;28;20044;-68
